createdAt,value
2023-05-10T00:01:27.951Z,100499.56
2023-05-10T00:03:58.082Z,100495.16
2023-05-10T00:06:28.158Z,100489.88
2023-05-10T00:08:58.146Z,100496.06
2023-05-10T00:11:28.269Z,100495.22
2023-05-10T00:14:00.837Z,100484.63
2023-05-10T00:16:30.913Z,100484.66
2023-05-10T00:19:00.966Z,100474.97
2023-05-10T00:21:31.345Z,100481.16
2023-05-10T00:24:01.433Z,100475.00
2023-05-10T00:26:31.444Z,100480.28
2023-05-10T00:29:04.414Z,100467.06
2023-05-10T00:31:34.399Z,100472.34
2023-05-10T00:34:04.463Z,100470.63
2023-05-10T00:36:34.377Z,100475.91
2023-05-10T00:39:04.752Z,100463.56
2023-05-10T00:41:34.853Z,100458.28
2023-05-10T00:44:08.163Z,100465.34
2023-05-10T00:46:38.506Z,100454.78
2023-05-10T00:49:08.609Z,100455.66
2023-05-10T00:51:38.656Z,100453.03
2023-05-10T00:54:09.346Z,100453.00
2023-05-10T00:56:39.522Z,100450.38
2023-05-10T00:59:12.209Z,100456.47
2023-05-10T01:01:42.314Z,100452.09
2023-05-10T01:04:12.920Z,100454.72
2023-05-10T01:06:42.965Z,100446.81
2023-05-10T01:09:12.937Z,100445.06
2023-05-10T01:11:43.647Z,100437.13
2023-05-10T01:14:16.407Z,100445.91
2023-05-10T01:16:47.070Z,100439.72
2023-05-10T01:19:21.468Z,100443.25
2023-05-10T01:21:55.390Z,100445.00
2023-05-10T01:24:53.469Z,100441.50
2023-05-10T01:27:47.699Z,100445.88
2023-05-10T01:30:44.318Z,100440.56
2023-05-10T01:33:20.439Z,100439.69
2023-05-10T01:35:57.785Z,100450.22
2023-05-10T01:38:44.356Z,100448.44
2023-05-10T01:41:19.067Z,100443.19
2023-05-10T01:43:55.494Z,100439.66
2023-05-10T01:46:31.765Z,100431.72
2023-05-10T01:49:05.237Z,100433.47
2023-05-10T01:51:39.720Z,100443.13
2023-05-10T01:54:10.050Z,100433.44
2023-05-10T01:56:41.438Z,100434.31
2023-05-10T01:59:15.675Z,100434.28
2023-05-10T02:01:46.321Z,100425.47
2023-05-10T02:04:21.158Z,100429.88
2023-05-10T02:06:52.059Z,100430.75
2023-05-10T02:09:24.459Z,100426.31
2023-05-10T02:11:54.500Z,100430.72
2023-05-10T02:14:25.672Z,100423.69
2023-05-10T02:16:57.232Z,100434.25
2023-05-10T02:19:30.450Z,100427.16
2023-05-10T02:22:01.539Z,100428.91
2023-05-10T02:24:32.668Z,100422.75
2023-05-10T02:27:04.830Z,100430.56
2023-05-10T02:29:35.783Z,100434.03
2023-05-10T02:32:07.450Z,100425.28
2023-05-10T02:34:40.629Z,100428.78
2023-05-10T02:37:11.362Z,100434.00
2023-05-10T02:39:44.909Z,100427.88
2023-05-10T02:42:18.744Z,100427.81
2023-05-10T02:44:52.383Z,100424.34
2023-05-10T02:47:22.737Z,100426.88
2023-05-10T02:49:55.305Z,100414.63
2023-05-10T02:52:29.285Z,100421.63
2023-05-10T02:55:00.329Z,100431.31
2023-05-10T02:57:32.929Z,100426.00
2023-05-10T03:00:04.239Z,100426.91
2023-05-10T03:02:34.641Z,100415.44
2023-05-10T03:05:07.856Z,100412.81
2023-05-10T03:07:38.604Z,100416.22
2023-05-10T03:10:10.194Z,100411.84
2023-05-10T03:12:52.434Z,100416.25
2023-05-10T03:15:33.149Z,100411.81
2023-05-10T03:18:09.081Z,100421.44
2023-05-10T03:20:46.830Z,100413.53
2023-05-10T03:23:25.533Z,100415.31
2023-05-10T03:25:56.526Z,100412.66
2023-05-10T03:28:29.790Z,100406.53
2023-05-10T03:31:00.457Z,100410.94
2023-05-10T03:33:30.700Z,100413.56
2023-05-10T03:36:03.361Z,100417.94
2023-05-10T03:38:33.392Z,100419.69
2023-05-10T03:41:03.324Z,100423.16
2023-05-10T03:43:33.440Z,100416.91
2023-05-10T03:46:05.673Z,100419.59
2023-05-10T03:48:36.302Z,100416.97
2023-05-10T03:51:09.123Z,100412.63
2023-05-10T03:53:39.499Z,100416.97
2023-05-10T03:56:09.817Z,100419.66
2023-05-10T03:58:39.999Z,100413.53
2023-05-10T04:01:10.117Z,100415.28
2023-05-10T04:03:40.323Z,100418.78
2023-05-10T04:06:13.333Z,100421.41
2023-05-10T04:08:43.340Z,100417.06
2023-05-10T04:11:15.291Z,100416.16
2023-05-10T04:13:45.242Z,100415.25
2023-05-10T04:16:15.180Z,100416.16
2023-05-10T04:18:45.166Z,100420.56
2023-05-10T04:21:20.749Z,100420.53
2023-05-10T04:23:50.770Z,100420.53
2023-05-10T04:26:21.340Z,100419.69
2023-05-10T04:28:51.383Z,100416.22
2023-05-10T04:31:21.429Z,100414.38
2023-05-10T04:33:51.607Z,100424.00
2023-05-10T04:36:24.303Z,100413.56
2023-05-10T04:38:54.015Z,100416.22
2023-05-10T04:41:24.014Z,100419.69
2023-05-10T04:43:53.887Z,100417.16
2023-05-10T04:46:24.230Z,100414.56
2023-05-10T04:48:54.084Z,100415.53
2023-05-10T04:51:26.345Z,100419.06
2023-05-10T04:54:05.363Z,100417.38
2023-05-10T04:56:37.098Z,100413.94
2023-05-10T04:59:06.963Z,100419.25
2023-05-10T05:01:37.036Z,100416.63
2023-05-10T05:04:07.985Z,100420.16
2023-05-10T05:06:44.733Z,100419.28
2023-05-10T05:09:14.568Z,100419.31
2023-05-10T05:11:44.470Z,100432.53
2023-05-10T05:14:14.234Z,100424.63
2023-05-10T05:16:44.083Z,100419.38
2023-05-10T05:19:13.846Z,100421.16
2023-05-10T05:21:46.200Z,100428.16
2023-05-10T05:24:16.153Z,100423.81
2023-05-10T05:26:45.964Z,100423.78
2023-05-10T05:29:16.913Z,100420.28
2023-05-10T05:31:48.485Z,100416.78
2023-05-10T05:34:18.247Z,100411.53
2023-05-10T05:36:50.505Z,100434.41
2023-05-10T05:39:20.492Z,100434.41
2023-05-10T05:41:50.236Z,100424.72
2023-05-10T05:44:19.878Z,100430.88
2023-05-10T05:46:49.596Z,100423.81
2023-05-10T05:49:19.272Z,100423.81
2023-05-10T05:51:51.760Z,100435.25
2023-05-10T05:54:21.524Z,100434.38
2023-05-10T05:56:51.173Z,100433.47
2023-05-10T05:59:20.866Z,100437.91
2023-05-10T06:01:50.581Z,100443.19
2023-05-10T06:04:20.720Z,100442.28
2023-05-10T06:06:53.103Z,100453.69
2023-05-10T06:09:24.865Z,100451.09
2023-05-10T06:11:54.616Z,100449.38
2023-05-10T06:14:24.381Z,100456.34
2023-05-10T06:16:54.079Z,100456.34
2023-05-10T06:19:23.811Z,100466.03
2023-05-10T06:21:56.216Z,100467.81
2023-05-10T06:24:27.570Z,100472.16
2023-05-10T06:26:57.541Z,100473.94
2023-05-10T06:29:27.374Z,100473.91
2023-05-10T06:31:57.192Z,100481.81
2023-05-10T06:34:27.127Z,100475.66
2023-05-10T06:36:59.494Z,100473.91
2023-05-10T06:39:30.489Z,100468.66
2023-05-10T06:42:00.374Z,100465.97
2023-05-10T06:44:35.643Z,100474.78
2023-05-10T06:47:05.630Z,100471.28
2023-05-10T06:49:35.442Z,100482.72
2023-05-10T06:52:07.952Z,100477.44
2023-05-10T06:54:37.724Z,100487.13
2023-05-10T06:57:16.145Z,100488.91
2023-05-10T06:59:49.778Z,100490.66
2023-05-10T07:02:19.680Z,100495.94
2023-05-10T07:04:51.324Z,100502.09
2023-05-10T07:07:23.851Z,100498.59
2023-05-10T07:09:53.682Z,100505.59
2023-05-10T07:12:23.465Z,100502.91
2023-05-10T07:14:53.355Z,100501.16
2023-05-10T07:17:23.292Z,100504.66
2023-05-10T07:19:53.326Z,100510.84
2023-05-10T07:22:25.890Z,100517.00
2023-05-10T07:24:55.560Z,100529.25
2023-05-10T07:27:25.304Z,100532.78
2023-05-10T07:29:55.757Z,100538.84
2023-05-10T07:32:25.559Z,100533.53
2023-05-10T07:34:55.641Z,100539.63
2023-05-10T07:37:27.959Z,100536.91
2023-05-10T07:39:57.753Z,100548.34
2023-05-10T07:42:27.437Z,100545.72
2023-05-10T07:44:57.129Z,100539.56
2023-05-10T07:47:27.294Z,100536.88
2023-05-10T07:49:57.155Z,100541.28
2023-05-10T07:52:29.515Z,100542.13
2023-05-10T07:54:59.391Z,100542.13
2023-05-10T07:57:29.131Z,100543.88
2023-05-10T07:59:58.837Z,100552.56
2023-05-10T08:02:28.584Z,100554.31
2023-05-10T08:04:58.224Z,100544.66
2023-05-10T08:07:31.020Z,100556.97
2023-05-10T08:10:00.682Z,100558.63
2023-05-10T08:12:30.297Z,100557.75
2023-05-10T08:15:00.026Z,100558.59
2023-05-10T08:17:29.801Z,100562.94
2023-05-10T08:19:59.490Z,100567.28
2023-05-10T08:22:31.801Z,100565.56
2023-05-10T08:25:01.484Z,100563.84
2023-05-10T08:27:31.240Z,100573.50
2023-05-10T08:30:01.772Z,100575.28
2023-05-10T08:32:32.205Z,100573.47
2023-05-10T08:35:01.928Z,100577.84
2023-05-10T08:37:36.659Z,100584.00
2023-05-10T08:40:07.212Z,100591.00
2023-05-10T08:42:40.274Z,100579.69
2023-05-10T08:45:11.894Z,100594.53
2023-05-10T08:47:42.029Z,100592.72
2023-05-10T08:50:13.229Z,100597.09
2023-05-10T08:52:45.928Z,100604.09
2023-05-10T08:55:16.242Z,100603.19
2023-05-10T08:57:46.436Z,100613.59
2023-05-10T09:00:17.946Z,100613.50
2023-05-10T09:02:48.152Z,100614.28
2023-05-10T09:05:19.335Z,100621.31
2023-05-10T09:07:52.143Z,100619.63
2023-05-10T09:10:22.026Z,100624.09
2023-05-10T09:12:52.513Z,100635.53
2023-05-10T09:15:22.854Z,100637.25
2023-05-10T09:17:53.521Z,100637.22
2023-05-10T09:20:23.705Z,100646.88
2023-05-10T09:22:56.155Z,100645.94
2023-05-10T09:25:25.991Z,100644.28
2023-05-10T09:27:56.258Z,100646.00
2023-05-10T09:30:30.416Z,100648.69
2023-05-10T09:33:01.098Z,100644.28
2023-05-10T09:35:31.396Z,100643.41
2023-05-10T09:38:05.998Z,100642.53
2023-05-10T09:40:36.064Z,100651.34
2023-05-10T09:43:07.423Z,100649.69
2023-05-10T09:45:39.297Z,100648.84
2023-05-10T09:48:09.787Z,100653.28
2023-05-10T09:50:39.988Z,100648.06
2023-05-10T09:53:12.369Z,100656.84
2023-05-10T09:55:45.848Z,100656.84
2023-05-10T09:58:16.385Z,100660.38
2023-05-10T10:00:48.964Z,100662.16
2023-05-10T10:03:21.462Z,100669.16
2023-05-10T10:05:52.410Z,100661.31
2023-05-10T10:08:24.822Z,100666.56
2023-05-10T10:10:54.626Z,100672.72
2023-05-10T10:13:24.397Z,100677.03
2023-05-10T10:15:54.788Z,100676.16
2023-05-10T10:18:28.310Z,100677.94
2023-05-10T10:20:58.259Z,100680.59
2023-05-10T10:23:31.405Z,100678.00
2023-05-10T10:26:01.305Z,100681.63
2023-05-10T10:28:48.520Z,100681.75
2023-05-10T10:31:25.196Z,100678.31
2023-05-10T10:34:08.233Z,100678.28
2023-05-10T10:36:44.149Z,100681.81
2023-05-10T10:39:17.162Z,100685.44
2023-05-10T10:41:59.996Z,100682.03
2023-05-10T10:45:11.390Z,100687.41
2023-05-10T10:48:02.259Z,100688.34
2023-05-10T10:54:49.878Z,100688.34
2023-05-10T10:57:47.831Z,100689.25
2023-05-10T11:01:11.319Z,100686.66
2023-05-10T11:04:12.443Z,100689.34
2023-05-10T11:06:52.589Z,100693.75
2023-05-10T11:09:43.737Z,100692.88
2023-05-10T11:23:04.971Z,100694.81
2023-05-10T11:28:45.679Z,100702.72
2023-05-10T11:31:18.101Z,100701.91
2023-05-10T11:33:48.814Z,100701.06
2023-05-10T11:36:19.793Z,100702.84
2023-05-10T11:38:50.530Z,100708.19
2023-05-10T11:41:24.592Z,100704.69
2023-05-10T11:43:55.630Z,100709.13
2023-05-10T11:46:28.088Z,100716.16
2023-05-10T11:49:02.876Z,100713.56
2023-05-10T11:51:33.301Z,100712.69
2023-05-10T11:54:03.846Z,100717.97
2023-05-10T11:56:36.965Z,100717.09
2023-05-10T11:59:07.969Z,100712.69
2023-05-10T12:01:38.153Z,100724.16
2023-05-10T12:04:08.571Z,100719.72
2023-05-10T12:06:44.584Z,100725.06
2023-05-10T12:09:14.849Z,100733.84
2023-05-10T12:11:47.654Z,100730.38
2023-05-10T12:14:17.785Z,100729.50
2023-05-10T12:16:48.144Z,100731.31
2023-05-10T12:19:22.544Z,100726.06
2023-05-10T12:21:53.144Z,100726.91
2023-05-10T12:24:23.426Z,100728.72
2023-05-10T12:26:56.108Z,100729.63
2023-05-10T12:29:26.258Z,100721.69
2023-05-10T12:31:57.483Z,100725.22
2023-05-10T12:34:31.443Z,100732.31
2023-05-10T12:37:01.999Z,100738.47
2023-05-10T12:39:43.139Z,100742.00
2023-05-10T12:42:15.954Z,100739.34
2023-05-10T12:44:46.152Z,100738.47
2023-05-10T12:47:16.281Z,100745.53
2023-05-10T12:49:46.623Z,100752.56
2023-05-10T12:52:16.895Z,100747.28
2023-05-10T12:54:47.370Z,100749.03
2023-05-10T12:57:20.690Z,100747.28
2023-05-10T12:59:50.941Z,100749.03
2023-05-10T13:02:22.690Z,100749.03
2023-05-10T13:04:53.379Z,100751.69
2023-05-10T13:07:23.191Z,100754.34
2023-05-10T13:09:53.346Z,100757.84
2023-05-10T13:12:26.013Z,100753.47
2023-05-10T13:14:56.197Z,100758.75
2023-05-10T13:17:26.459Z,100758.75
2023-05-10T13:19:56.744Z,100757.84
2023-05-10T13:22:39.157Z,100760.47
2023-05-10T13:25:10.694Z,100764.03
2023-05-10T13:27:43.557Z,100751.66
2023-05-10T13:30:14.712Z,100760.44
2023-05-10T13:32:45.129Z,100755.16
2023-05-10T13:35:15.123Z,100764.84
2023-05-10T13:37:45.521Z,100756.03
2023-05-10T13:40:16.891Z,100750.75
2023-05-10T13:42:49.866Z,100760.44
2023-05-10T13:45:20.046Z,100754.19
2023-05-10T13:47:50.258Z,100757.72
2023-05-10T13:50:20.927Z,100760.41
2023-05-10T13:52:51.117Z,100756.84
2023-05-10T13:55:21.268Z,100756.84
2023-05-10T13:57:54.298Z,100757.75
2023-05-10T14:00:24.485Z,100762.13
2023-05-10T14:02:54.813Z,100750.66
2023-05-10T14:05:26.283Z,100752.44
2023-05-10T14:07:56.911Z,100766.59
2023-05-10T14:10:27.169Z,100763.94
2023-05-10T14:13:00.289Z,100769.28
2023-05-10T14:15:30.573Z,100779.91
2023-05-10T14:18:00.771Z,100784.34
2023-05-10T14:20:31.263Z,100782.56
2023-05-10T14:23:01.382Z,100776.38
2023-05-10T14:25:31.846Z,100780.81
2023-05-10T14:28:04.638Z,100780.81
2023-05-10T14:30:35.848Z,100786.09
2023-05-10T14:33:06.839Z,100781.69
2023-05-10T14:35:37.130Z,100786.97
2023-05-10T14:38:07.295Z,100785.19
2023-05-10T14:40:37.673Z,100783.44
2023-05-10T14:43:10.575Z,100786.94
2023-05-10T14:45:40.705Z,100791.38
2023-05-10T14:48:16.387Z,100788.72
2023-05-10T14:50:46.681Z,100791.34
2023-05-10T14:53:16.837Z,100787.81
2023-05-10T14:55:47.323Z,100791.31
2023-05-10T14:58:20.379Z,100792.22
2023-05-10T15:00:50.459Z,100798.41
2023-05-10T15:03:20.964Z,100792.22
2023-05-10T15:05:51.126Z,100810.75
2023-05-10T15:08:21.220Z,100802.81
2023-05-10T15:10:51.376Z,100809.03
2023-05-10T15:13:24.144Z,100811.66
2023-05-10T15:15:54.466Z,100805.50
2023-05-10T15:18:27.846Z,100818.72
2023-05-10T15:20:59.690Z,100821.38
2023-05-10T15:23:31.032Z,100824.91
2023-05-10T15:26:01.082Z,100822.25
2023-05-10T15:28:34.514Z,100829.31
2023-05-10T15:31:04.795Z,100830.19
2023-05-10T15:33:35.036Z,100832.84
2023-05-10T15:36:05.466Z,100845.19
2023-05-10T15:38:35.503Z,100839.00
2023-05-10T15:41:05.531Z,100843.41
2023-05-10T16:40:32.967Z,100896.84
2023-05-10T16:43:02.822Z,100896.88
2023-05-10T16:45:34.254Z,100898.63
2023-05-10T16:48:07.568Z,100909.22
2023-05-10T16:50:51.253Z,100908.38
2023-05-10T16:57:13.604Z,100923.34
2023-05-10T16:59:43.652Z,100922.44
2023-05-10T17:02:22.271Z,100920.72
2023-05-10T17:04:53.358Z,100924.28
2023-05-10T17:18:02.984Z,100938.31
2023-05-10T17:20:35.694Z,100940.06
2023-05-10T17:23:05.498Z,100948.84
2023-05-10T17:25:38.142Z,100952.34
2023-05-10T17:28:07.935Z,100952.31
2023-05-10T17:30:51.345Z,100956.72
2023-05-10T17:33:50.004Z,100955.84
2023-05-10T17:44:30.346Z,100971.66
2023-05-10T17:47:17.859Z,100977.88
2023-05-10T17:55:27.260Z,100986.59
2023-05-10T17:57:58.749Z,100991.03
2023-05-10T18:00:28.883Z,100993.69
2023-05-10T18:02:58.635Z,100992.78
2023-05-10T18:05:28.538Z,100993.63
2023-05-10T18:07:58.327Z,100997.09
2023-05-10T18:10:33.719Z,100997.09
2023-05-10T18:13:17.538Z,100987.34
2023-05-10T18:22:25.926Z,101012.84
2023-05-10T18:35:31.976Z,101012.00
2023-05-10T18:38:26.312Z,101021.63
2023-05-10T18:41:22.631Z,101014.63
2023-05-10T18:43:52.653Z,101019.88
2023-05-10T18:46:22.722Z,101034.84
2023-05-10T18:48:52.630Z,101018.97
2023-05-10T18:51:26.600Z,101033.00
2023-05-10T18:53:57.561Z,101031.22
2023-05-10T18:56:29.913Z,101035.59
2023-05-10T18:59:01.496Z,101036.53
2023-05-10T19:01:31.529Z,101041.78
2023-05-10T19:04:02.446Z,101041.75
2023-05-10T19:06:36.522Z,101042.59
2023-05-10T19:09:08.975Z,101050.50
2023-05-10T19:11:40.171Z,101057.47
2023-05-10T19:14:10.688Z,101059.19
2023-05-10T19:16:42.299Z,101060.94
2023-05-10T19:19:17.531Z,101070.56
2023-05-10T19:21:50.172Z,101068.72
2023-05-10T19:24:24.105Z,101080.13
2023-05-10T19:26:55.520Z,101072.16
2023-05-10T19:29:27.215Z,101075.63
2023-05-10T19:32:00.947Z,101080.88
2023-05-10T19:34:31.528Z,101083.53
2023-05-10T19:37:04.847Z,101089.66
2023-05-10T19:39:34.861Z,101086.09
2023-05-10T19:42:05.557Z,101092.25
2023-05-10T19:44:35.240Z,101087.84
2023-05-10T19:47:06.017Z,101091.38
2023-05-10T19:49:36.428Z,101086.03
2023-05-10T19:52:12.268Z,101092.88
2023-05-10T19:54:42.987Z,101086.56
2023-05-10T19:57:14.071Z,101082.06
2023-05-10T19:59:44.917Z,101096.97
2023-05-10T20:02:15.080Z,101088.09
2023-05-10T20:04:45.467Z,101101.25
2023-05-10T20:07:22.894Z,101092.47
2023-05-10T20:09:52.714Z,101098.59
2023-05-10T20:12:22.513Z,101094.19
2023-05-10T20:14:52.404Z,101098.59
2023-05-10T20:17:23.647Z,101105.56
2023-05-10T20:19:54.589Z,101105.47
2023-05-10T20:22:31.076Z,101101.00
2023-05-10T20:25:04.888Z,101107.13
2023-05-10T20:27:35.899Z,101107.13
2023-05-10T20:30:09.485Z,101100.91
2023-05-10T20:32:41.248Z,101105.28
2023-05-10T20:35:16.143Z,101107.09
2023-05-10T20:38:09.249Z,101101.81
2023-05-10T20:41:07.845Z,101101.72
2023-05-10T20:43:59.458Z,101105.19
2023-05-10T20:46:30.858Z,101108.66
2023-05-10T20:49:01.445Z,101108.63
2023-05-10T20:51:33.322Z,101107.72
2023-05-10T20:54:09.827Z,101111.25
2023-05-10T20:56:41.279Z,101108.63
2023-05-10T20:59:20.469Z,101110.31
2023-05-10T21:01:53.607Z,101110.31
2023-05-10T21:04:27.446Z,101108.63
2023-05-10T21:06:58.849Z,101121.75
2023-05-10T21:09:32.154Z,101119.09
2023-05-10T21:12:03.550Z,101116.47
2023-05-10T21:14:35.583Z,101115.59
2023-05-10T21:17:06.101Z,101119.09
2023-05-10T21:19:36.722Z,101122.63
2023-05-10T21:22:12.119Z,101110.28
2023-05-10T21:24:45.643Z,101110.28
2023-05-10T21:27:16.675Z,101114.66
2023-05-10T21:29:47.503Z,101124.13
2023-05-10T21:32:17.693Z,101121.41
2023-05-10T21:34:48.126Z,101111.81
2023-05-10T21:37:19.360Z,101122.22
2023-05-10T21:39:53.088Z,101110.84
2023-05-10T21:42:23.354Z,101116.91
2023-05-10T21:44:53.893Z,101114.22
2023-05-10T21:47:23.709Z,101112.41
2023-05-10T21:49:53.598Z,101110.59
2023-05-10T21:52:23.494Z,101108.81
2023-05-10T21:54:55.916Z,101118.56
2023-05-10T21:57:25.786Z,101121.13
2023-05-10T21:59:55.776Z,101115.69
2023-05-10T22:02:25.826Z,101114.78
2023-05-10T22:04:55.916Z,101121.69
2023-05-10T22:07:25.783Z,101123.44
2023-05-10T22:09:58.739Z,101119.69
2023-05-10T22:12:28.656Z,101114.22
2023-05-10T22:15:09.473Z,101117.53
2023-05-10T22:17:41.044Z,101126.94
2023-05-10T22:20:12.245Z,101118.94
2023-05-10T22:22:42.095Z,101124.13
2023-05-10T22:25:14.720Z,101122.16
2023-05-10T22:27:44.633Z,101117.75
2023-05-10T22:30:15.390Z,101124.72
2023-05-10T22:32:45.082Z,101133.53
2023-05-10T22:35:14.966Z,101124.81
2023-05-10T22:37:44.828Z,101120.41
2023-05-10T22:40:17.943Z,101123.94
2023-05-10T22:42:47.889Z,101129.13
2023-05-10T22:45:17.946Z,101132.69
2023-05-10T22:47:47.906Z,101134.47
2023-05-10T22:50:18.065Z,101136.13
2023-05-10T22:52:48.142Z,101141.31
2023-05-10T22:55:20.800Z,101141.25
2023-05-10T22:57:50.756Z,101140.34
2023-05-10T23:00:21.033Z,101151.84
2023-05-10T23:02:51.007Z,101144.09
2023-05-10T23:05:21.449Z,101153.84
2023-05-10T23:07:53.455Z,101143.28
2023-05-10T23:10:26.100Z,101156.47
2023-05-10T23:12:56.180Z,101151.28
2023-05-10T23:15:26.015Z,101154.88
2023-05-10T23:17:56.095Z,101154.94
2023-05-10T23:20:25.979Z,101156.69
2023-05-10T23:22:56.409Z,101150.59
2023-05-10T23:25:28.862Z,101157.63
2023-05-10T23:27:58.691Z,101152.38
2023-05-10T23:30:28.503Z,101165.66
2023-05-10T23:32:58.401Z,101161.25
2023-05-10T23:35:28.321Z,101162.94
2023-05-10T23:37:58.360Z,101165.66
2023-05-10T23:40:30.914Z,101167.47
2023-05-10T23:43:00.771Z,101162.25
2023-05-10T23:45:30.790Z,101171.06
2023-05-10T23:48:00.712Z,101168.34
2023-05-10T23:50:30.695Z,101169.28
2023-05-10T23:53:00.604Z,101171.03
2023-05-10T23:55:33.051Z,101166.63
2023-05-10T23:58:02.922Z,101162.31
